Time;durP1;ratioP1;P1;durP2;ratioP2;P2;SDS_P1;SDS_P2;PMS_P1;PMS_P2;Temp;Humidity;BMP_temperature;BMP_pressure;BME280_temperature;BME280_humidity;BME280_pressure;Samples;Min_cycle;Max_cycle;Signal;HPM_P1;HPM_P2
2022/12/11 00:00:47;;;;;;;40.17;18.27;;;0.50;99.90;;;;;;5112890;28;20420;-68
2022/12/11 00:03:15;;;;;;;39.03;18.45;;;0.50;99.90;;;;;;5112335;28;20043;-68
2022/12/11 00:05:41;;;;;;;47.17;19.33;;;0.40;99.90;;;;;;5094282;28;20493;-68
2022/12/11 00:08:06;;;;;;;42.30;19.50;;;0.40;99.90;;;;;;5112508;28;20048;-67
2022/12/11 00:10:32;;;;;;;41.72;17.88;;;0.20;99.90;;;;;;5094178;28;20039;-68
2022/12/11 00:12:58;;;;;;;38.42;17.35;;;0.20;99.90;;;;;;5093917;28;20073;-67
2022/12/11 00:15:23;;;;;;;43.45;18.85;;;0.20;99.90;;;;;;5094184;28;20058;-68
2022/12/11 00:17:49;;;;;;;42.47;19.65;;;0.50;99.90;;;;;;5112402;28;20071;-68
2022/12/11 00:20:15;;;;;;;44.72;18.55;;;0.40;99.90;;;;;;5094041;28;20027;-68
2022/12/11 00:22:40;;;;;;;52.20;20.77;;;0.30;99.90;;;;;;5093775;28;20112;-68
2022/12/11 00:25:07;;;;;;;44.42;18.40;;;0.10;99.90;;;;;;5093766;28;20082;-67
2022/12/11 00:27:32;;;;;;;43.75;19.77;;;0.30;99.90;;;;;;5094360;28;20116;-68
2022/12/11 00:29:58;;;;;;;37.30;19.33;;;0.50;99.90;;;;;;5112366;28;20035;-68
2022/12/11 00:32:23;;;;;;;42.60;18.85;;;0.30;99.90;;;;;;5077177;28;20038;-67
2022/12/11 00:34:49;;;;;;;45.35;18.92;;;0.40;99.90;;;;;;5112208;28;20038;-68
2022/12/11 00:37:14;;;;;;;41.75;18.13;;;0.40;99.90;;;;;;5112332;28;20112;-68
2022/12/11 00:39:40;;;;;;;43.15;17.38;;;0.10;99.90;;;;;;5094344;28;20040;-68
2022/12/11 00:42:06;;;;;;;35.75;16.27;;;0.30;99.90;;;;;;5112438;28;20050;-68
2022/12/11 00:44:32;;;;;;;32.85;16.45;;;0.50;99.90;;;;;;5112133;28;20031;-68
2022/12/11 00:46:57;;;;;;;37.15;15.88;;;0.20;99.90;;;;;;5094133;28;20040;-68
2022/12/11 00:49:23;;;;;;;36.25;15.88;;;0.60;99.90;;;;;;5112209;28;20039;-68
2022/12/11 00:51:49;;;;;;;38.28;16.42;;;0.30;99.90;;;;;;5093933;28;20118;-68
2022/12/11 00:54:14;;;;;;;40.15;16.73;;;0.70;99.90;;;;;;5093521;28;20048;-68
2022/12/11 00:56:40;;;;;;;46.45;22.40;;;0.70;99.90;;;;;;5095417;28;20383;-69
2022/12/11 00:59:05;;;;;;;35.78;17.17;;;0.60;99.90;;;;;;5098001;28;20043;-68
2022/12/11 01:01:31;;;;;;;32.42;15.48;;;0.70;99.90;;;;;;5116195;28;20039;-68
2022/12/11 01:03:57;;;;;;;37.42;16.60;;;0.50;99.90;;;;;;5080949;28;20039;-68
2022/12/11 01:06:24;;;;;;;40.38;17.48;;;0.70;99.90;;;;;;5097613;28;20040;-68
2022/12/11 01:10:22;;;;;;;37.00;16.63;;;0.80;99.90;;;;;;5098069;28;20070;-68
2022/12/11 01:11:40;;;;;;;39.42;15.65;;;0.80;99.90;;;;;;5115808;28;20046;-68
2022/12/11 01:14:06;;;;;;;34.65;16.45;;;0.50;99.90;;;;;;5115645;28;20031;-68
2022/12/11 01:16:31;;;;;;;34.90;16.70;;;0.80;99.90;;;;;;5097602;28;20040;-68
2022/12/11 01:18:58;;;;;;;39.15;16.83;;;0.80;99.90;;;;;;5080871;28;20047;-68
2022/12/11 01:21:23;;;;;;;34.17;14.27;;;0.60;99.90;;;;;;5097611;28;20097;-68
2022/12/11 01:23:50;;;;;;;33.28;14.77;;;0.70;99.90;;;;;;5115403;28;20419;-68
2022/12/11 01:26:16;;;;;;;32.83;14.57;;;0.50;99.90;;;;;;5115752;28;20031;-69
2022/12/11 01:28:42;;;;;;;44.05;16.55;;;0.70;99.90;;;;;;5115689;28;20093;-68
2022/12/11 01:31:13;;;;;;;35.50;16.63;;;0.50;99.90;;;;;;5097330;28;20450;-69
2022/12/11 01:33:39;;;;;;;38.70;16.33;;;0.70;99.90;;;;;;5115181;28;20044;-68
2022/12/11 01:36:15;;;;;;;43.70;17.40;;;0.90;99.90;;;;;;5115833;28;20069;-69
2022/12/11 01:38:40;;;;;;;41.33;17.20;;;0.90;99.90;;;;;;5097394;28;20562;-68
2022/12/11 01:41:06;;;;;;;36.15;15.13;;;0.90;99.90;;;;;;5115527;28;20043;-68
2022/12/11 01:43:32;;;;;;;37.33;15.55;;;0.60;99.90;;;;;;5097000;28;20036;-69
2022/12/11 01:45:58;;;;;;;37.30;15.88;;;0.90;99.90;;;;;;5115067;28;20035;-68
2022/12/11 01:48:28;;;;;;;32.78;14.90;;;1.00;99.90;;;;;;5115519;28;20409;-68
2022/12/11 01:51:03;;;;;;;37.72;14.35;;;1.00;99.90;;;;;;5096858;28;20078;-68
2022/12/11 01:53:33;;;;;;;35.00;15.73;;;0.90;99.90;;;;;;5096834;28;20036;-68
2022/12/11 01:55:59;;;;;;;37.60;14.80;;;0.60;99.90;;;;;;5097020;28;20047;-68
2022/12/11 01:58:33;;;;;;;33.58;14.70;;;0.80;99.90;;;;;;5096998;28;20036;-68
2022/12/11 02:01:01;;;;;;;37.88;16.45;;;0.80;99.90;;;;;;5115267;28;20035;-69
2022/12/11 02:03:26;;;;;;;37.40;17.63;;;1.00;99.90;;;;;;5096526;28;20131;-68
2022/12/11 02:05:52;;;;;;;39.78;15.48;;;1.10;99.90;;;;;;5096847;28;20063;-68
2022/12/11 02:08:18;;;;;;;38.25;15.40;;;1.10;99.90;;;;;;5096052;28;20051;-69
2022/12/11 02:11:00;;;;;;;39.42;16.40;;;1.00;99.90;;;;;;5114876;28;20027;-69
2022/12/11 02:13:42;;;;;;;33.30;15.75;;;0.80;99.90;;;;;;5114759;28;20046;-69
2022/12/11 02:16:32;;;;;;;35.72;16.20;;;1.00;99.90;;;;;;5096284;28;20051;-68
2022/12/11 02:19:19;;;;;;;38.53;16.00;;;1.10;99.90;;;;;;5096701;28;20047;-69
2022/12/11 02:21:49;;;;;;;36.58;16.52;;;0.80;99.90;;;;;;5096329;28;20047;-67
2022/12/11 02:24:30;;;;;;;31.55;14.05;;;0.80;99.90;;;;;;5114011;28;20526;-69
2022/12/11 02:27:10;;;;;;;36.75;14.88;;;0.80;99.90;;;;;;5114579;28;20036;-69
2022/12/11 02:29:43;;;;;;;30.40;15.15;;;1.20;99.90;;;;;;5096401;28;20086;-68
2022/12/11 02:32:12;;;;;;;;;;;1.10;99.90;;;;;;5115008;28;20071;-69
2022/12/11 02:34:58;;;;;;;34.35;15.25;;;1.00;99.90;;;;;;5096150;28;19926;-68
2022/12/11 02:37:28;;;;;;;32.42;14.60;;;1.20;99.90;;;;;;5114392;28;20044;-69
2022/12/11 02:39:55;;;;;;;38.78;15.38;;;1.20;99.90;;;;;;5114253;28;20569;-69
2022/12/11 02:42:24;;;;;;;37.75;16.00;;;1.00;99.90;;;;;;5113945;28;20051;-68
2022/12/11 02:44:50;;;;;;;42.55;18.00;;;0.90;99.90;;;;;;5114305;28;20031;-69
2022/12/11 02:47:18;;;;;;;40.97;16.75;;;1.20;99.90;;;;;;5114597;28;20046;-68
2022/12/11 02:49:47;;;;;;;44.78;18.08;;;1.20;99.90;;;;;;5114633;28;20036;-69
2022/12/11 02:52:15;;;;;;;38.38;15.52;;;1.20;99.90;;;;;;5114268;28;20050;-68
2022/12/11 02:54:43;;;;;;;42.63;16.90;;;0.90;99.90;;;;;;5114142;28;20134;-69
2022/12/11 02:57:43;;;;;;;37.58;15.85;;;1.20;99.90;;;;;;5114204;28;20075;-68
2022/12/11 03:00:10;;;;;;;35.58;15.43;;;0.90;99.90;;;;;;5114023;28;20079;-69
2022/12/11 03:02:37;;;;;;;43.85;16.30;;;0.90;99.90;;;;;;5095169;28;20040;-68
2022/12/11 03:05:04;;;;;;;41.20;15.68;;;0.90;99.90;;;;;;5113652;28;20059;-69
2022/12/11 03:07:33;;;;;;;41.60;15.60;;;1.20;99.90;;;;;;5095240;28;20046;-68
2022/12/11 03:09:59;;;;;;;43.05;16.90;;;0.90;99.90;;;;;;5095635;28;20048;-69
2022/12/11 03:12:34;;;;;;;43.25;16.52;;;1.10;99.90;;;;;;5094992;28;20096;-69
2022/12/11 03:15:02;;;;;;;41.47;17.75;;;1.00;99.90;;;;;;5113485;28;20039;-69
2022/12/11 03:17:37;;;;;;;43.35;17.98;;;1.30;99.90;;;;;;5095471;28;20046;-69
2022/12/11 03:20:17;;;;;;;44.30;16.77;;;1.10;99.90;;;;;;5112703;28;20047;-68
2022/12/11 03:22:48;;;;;;;41.92;17.98;;;0.90;99.90;;;;;;5094897;28;20552;-69
2022/12/11 03:25:24;;;;;;;43.50;16.85;;;0.90;99.90;;;;;;5113222;28;20047;-69
2022/12/11 03:28:18;;;;;;;41.45;16.60;;;1.20;99.90;;;;;;5078017;28;20035;-69
2022/12/11 03:30:45;;;;;;;41.83;16.50;;;1.30;99.90;;;;;;5105131;28;20047;-69
2022/12/11 03:33:19;;;;;;;44.85;17.13;;;1.00;99.90;;;;;;5113025;28;20047;-69
2022/12/11 03:35:52;;;;;;;43.00;16.30;;;1.00;99.90;;;;;;5095288;28;20043;-69
2022/12/11 03:38:23;;;;;;;39.47;15.77;;;1.20;99.90;;;;;;5095274;28;20094;-69
2022/12/11 03:40:59;;;;;;;40.45;16.58;;;1.30;99.90;;;;;;5130248;27;20122;-72
2022/12/11 03:43:27;;;;;;;41.85;16.48;;;1.00;99.90;;;;;;5129950;27;20043;-69
2022/12/11 03:45:54;;;;;;;43.10;16.27;;;1.30;99.90;;;;;;5130110;27;20027;-68
2022/12/11 03:48:22;;;;;;;37.25;15.65;;;1.00;99.90;;;;;;5130025;27;20031;-68
2022/12/11 03:50:48;;;;;;;44.65;16.77;;;1.30;99.90;;;;;;5129958;27;20040;-68
2022/12/11 03:53:15;;;;;;;36.80;15.18;;;1.00;99.90;;;;;;5129508;27;20043;-68
2022/12/11 03:55:41;;;;;;;39.33;16.17;;;1.40;99.90;;;;;;5128637;27;20540;-68
2022/12/11 03:58:06;;;;;;;37.50;16.65;;;1.30;99.90;;;;;;5111414;28;20122;-68
2022/12/11 04:00:32;;;;;;;40.33;15.70;;;1.40;99.90;;;;;;5128413;28;20044;-68
2022/12/11 04:03:13;;;;;;;34.55;16.15;;;1.30;99.90;;;;;;5128429;28;20043;-68
2022/12/11 04:05:47;;;;;;;44.53;16.83;;;1.10;99.90;;;;;;5128147;27;20042;-68
2022/12/11 04:08:13;;;;;;;38.67;16.30;;;1.40;99.90;;;;;;5129864;27;20078;-68
2022/12/11 04:10:40;;;;;;;43.78;17.95;;;1.30;99.90;;;;;;5129636;27;20035;-68
2022/12/11 04:13:05;;;;;;;39.65;15.20;;;1.40;99.90;;;;;;5127943;28;20085;-68
2022/12/11 04:15:31;;;;;;;44.15;16.85;;;1.10;99.90;;;;;;5128068;28;20043;-68
2022/12/11 04:26:14;;;;;;;36.33;14.95;;;1.10;99.90;;;;;;5117605;27;20043;-69
2022/12/11 04:28:40;;;;;;;38.80;15.35;;;1.40;99.90;;;;;;5127844;27;20039;-69
2022/12/11 04:31:10;;;;;;;44.42;15.82;;;1.10;99.90;;;;;;5128191;27;20042;-69
2022/12/11 04:33:36;;;;;;;46.90;15.63;;;1.10;99.90;;;;;;5127622;28;20039;-69
2022/12/11 04:36:01;;;;;;;40.05;15.45;;;1.30;99.90;;;;;;5128984;27;20035;-69
2022/12/11 04:38:27;;;;;;;43.13;17.73;;;1.20;99.90;;;;;;5128023;28;20054;-69
2022/12/11 04:41:01;;;;;;;41.42;17.58;;;1.40;99.90;;;;;;5128878;27;20044;-69
2022/12/11 04:43:27;;;;;;;37.65;15.75;;;1.00;99.90;;;;;;5127647;28;20043;-69
2022/12/11 04:46:07;;;;;;;34.65;15.32;;;1.10;99.90;;;;;;5127594;28;20088;-68
2022/12/11 04:48:33;;;;;;;39.17;15.80;;;1.00;99.90;;;;;;5127557;28;20043;-69
2022/12/11 04:50:59;;;;;;;38.35;16.90;;;1.10;99.90;;;;;;5121251;27;20039;-69
2022/12/11 04:53:25;;;;;;;30.98;15.25;;;1.40;99.90;;;;;;5114712;28;20097;-69
2022/12/11 04:55:50;;;;;;;42.70;17.35;;;1.10;99.90;;;;;;5113675;28;20043;-69
2022/12/11 04:58:16;;;;;;;42.58;16.90;;;1.20;99.90;;;;;;5113678;28;20028;-69
2022/12/11 05:00:42;;;;;;;38.08;14.73;;;1.10;99.90;;;;;;5114990;28;20073;-68
2022/12/11 05:03:07;;;;;;;39.33;17.05;;;1.10;99.90;;;;;;5113543;28;20081;-69
2022/12/11 05:05:33;;;;;;;46.72;18.48;;;1.10;99.90;;;;;;5114840;27;20031;-69
2022/12/11 05:07:58;;;;;;;43.60;16.65;;;1.10;99.90;;;;;;5114735;28;20039;-69
2022/12/11 05:10:24;;;;;;;37.80;15.35;;;1.10;99.90;;;;;;5113704;28;20039;-69
2022/12/11 05:12:50;;;;;;;40.80;17.58;;;1.50;99.90;;;;;;5114324;28;20058;-69
2022/12/11 05:15:16;;;;;;;36.55;15.73;;;1.40;99.90;;;;;;5113299;28;20035;-69
2022/12/11 05:17:41;;;;;;;43.58;17.92;;;1.30;99.90;;;;;;5114688;28;20529;-68
2022/12/11 05:20:08;;;;;;;45.67;18.75;;;1.20;99.90;;;;;;5114533;28;20044;-69
2022/12/11 05:22:34;;;;;;;42.10;17.52;;;1.50;99.90;;;;;;5114101;27;20458;-69
2022/12/11 05:25:00;;;;;;;39.78;16.63;;;1.50;99.90;;;;;;5114349;28;20071;-69
2022/12/11 05:27:25;;;;;;;49.72;17.55;;;1.30;99.90;;;;;;5114609;28;20075;-69
2022/12/11 05:29:51;;;;;;;41.92;16.83;;;1.20;99.90;;;;;;5112650;28;20039;-69
2022/12/11 05:32:16;;;;;;;44.42;17.40;;;1.20;99.90;;;;;;5113082;28;20049;-68
2022/12/11 05:34:42;;;;;;;51.22;19.27;;;1.50;99.90;;;;;;5112772;28;20130;-69
2022/12/11 05:37:08;;;;;;;40.13;16.58;;;1.10;99.90;;;;;;5112857;28;20122;-69
2022/12/11 05:39:33;;;;;;;49.05;18.45;;;1.20;99.90;;;;;;5112730;28;20405;-69
2022/12/11 05:41:59;;;;;;;38.28;17.30;;;1.10;99.90;;;;;;5112794;28;20446;-69
2022/12/11 05:44:24;;;;;;;41.58;15.55;;;1.50;99.90;;;;;;5113753;28;20134;-69
2022/12/11 05:46:50;;;;;;;43.17;18.02;;;1.10;99.90;;;;;;5112721;28;20040;-69
2022/12/11 05:49:15;;;;;;;45.38;17.92;;;1.30;99.90;;;;;;5112676;28;20413;-69
2022/12/11 05:51:42;;;;;;;45.75;19.92;;;1.40;99.90;;;;;;5112614;28;20071;-68
2022/12/11 05:54:08;;;;;;;48.30;18.13;;;1.30;99.90;;;;;;5112113;28;20047;-69
2022/12/11 05:56:35;;;;;;;40.83;17.48;;;1.40;99.90;;;;;;5112567;28;20047;-69
2022/12/11 05:59:02;;;;;;;41.13;16.95;;;1.40;99.90;;;;;;5113876;28;20115;-69
2022/12/11 06:01:31;;;;;;;50.97;18.27;;;1.50;99.90;;;;;;5112728;28;20043;-69
2022/12/11 06:03:57;;;;;;;40.83;16.35;;;1.10;99.90;;;;;;5111254;28;20044;-69
2022/12/11 06:06:24;;;;;;;45.63;17.27;;;1.40;99.90;;;;;;5112352;28;20024;-68
2022/12/11 06:08:54;;;;;;;41.90;18.10;;;1.50;99.90;;;;;;5112299;28;20043;-69
2022/12/11 06:11:20;;;;;;;40.95;16.80;;;1.50;99.90;;;;;;5113833;28;20035;-69
2022/12/11 06:13:47;;;;;;;39.10;17.73;;;1.40;99.90;;;;;;5112099;28;20043;-69
2022/12/11 06:16:12;;;;;;;38.92;15.98;;;1.10;99.90;;;;;;5113487;28;20040;-69
2022/12/11 06:18:43;;;;;;;38.45;17.45;;;1.30;99.90;;;;;;5113266;28;20043;-69
2022/12/11 06:21:21;;;;;;;44.42;16.92;;;1.20;99.90;;;;;;5113288;28;20114;-69
2022/12/11 06:23:50;;;;;;;39.13;15.15;;;1.50;99.90;;;;;;5113134;28;20067;-69
2022/12/11 06:26:17;;;;;;;43.38;16.45;;;1.50;99.90;;;;;;5111935;28;20404;-69
2022/12/11 06:28:42;;;;;;;36.70;15.70;;;1.40;99.90;;;;;;5113310;28;20035;-69
2022/12/11 06:31:08;;;;;;;47.90;19.23;;;1.40;99.90;;;;;;5094906;28;20032;-69
2022/12/11 06:33:34;;;;;;;45.00;17.27;;;1.50;99.90;;;;;;5111438;28;20424;-69
2022/12/11 06:36:02;;;;;;;45.50;18.85;;;1.30;99.90;;;;;;5113169;28;20046;-69
2022/12/11 06:38:28;;;;;;;52.17;17.98;;;1.60;99.90;;;;;;5111700;28;20048;-69
2022/12/11 06:40:55;;;;;;;35.17;15.70;;;1.20;99.90;;;;;;5111609;28;20043;-69
2022/12/11 06:43:21;;;;;;;44.65;17.48;;;1.20;99.90;;;;;;5112564;28;20477;-69
2022/12/11 06:45:47;;;;;;;40.50;16.65;;;1.20;99.90;;;;;;5112925;28;20036;-68
2022/12/11 06:48:12;;;;;;;40.97;19.08;;;1.40;99.90;;;;;;5111553;28;20489;-69
2022/12/11 06:50:38;;;;;;;48.58;18.20;;;1.40;99.90;;;;;;5111577;28;20050;-69
2022/12/11 06:53:03;;;;;;;42.70;17.70;;;1.50;99.90;;;;;;5112660;28;20040;-69
2022/12/11 06:55:29;;;;;;;38.00;16.90;;;1.20;99.90;;;;;;5112797;28;20039;-68
2022/12/11 06:57:54;;;;;;;44.97;19.75;;;1.20;99.90;;;;;;5112722;28;20035;-68
2022/12/11 07:00:20;;;;;;;38.40;16.33;;;1.20;99.90;;;;;;5111436;28;20050;-68
2022/12/11 07:02:46;;;;;;;45.45;17.50;;;1.40;99.90;;;;;;5111153;28;20043;-68
2022/12/11 07:05:12;;;;;;;43.30;18.13;;;1.40;99.90;;;;;;5111479;28;20088;-68
2022/12/11 07:07:37;;;;;;;41.35;17.15;;;1.50;99.90;;;;;;5111170;28;20302;-68
2022/12/11 07:10:03;;;;;;;42.55;16.05;;;1.60;99.90;;;;;;5112617;28;20049;-68
2022/12/11 07:12:29;;;;;;;41.20;15.98;;;1.60;99.90;;;;;;5111058;28;20435;-69
2022/12/11 07:14:54;;;;;;;43.85;18.20;;;1.60;99.90;;;;;;5112057;28;20040;-68
2022/12/11 07:17:20;;;;;;;48.40;17.48;;;1.30;99.90;;;;;;5112245;28;20085;-68
2022/12/11 07:19:45;;;;;;;42.80;16.90;;;1.30;99.90;;;;;;5110968;28;20097;-69
2022/12/11 07:22:11;;;;;;;44.42;16.20;;;1.20;99.90;;;;;;5112307;28;20043;-69
2022/12/11 07:24:36;;;;;;;41.60;16.75;;;1.30;99.90;;;;;;5112085;28;20035;-69
2022/12/11 07:27:03;;;;;;;38.83;14.90;;;1.30;99.90;;;;;;5112284;28;20481;-69
2022/12/11 07:29:28;;;;;;;40.75;15.20;;;1.30;99.90;;;;;;5112199;28;20047;-69
2022/12/11 07:31:54;;;;;;;39.85;15.20;;;1.20;99.90;;;;;;5110803;28;20040;-69
2022/12/11 07:34:19;;;;;;;43.67;18.10;;;1.50;99.90;;;;;;5110501;28;20051;-69
2022/12/11 07:36:45;;;;;;;38.67;16.15;;;1.30;99.90;;;;;;5094207;28;20454;-69
2022/12/11 07:39:11;;;;;;;44.95;16.88;;;1.50;99.90;;;;;;5093905;28;20039;-69
2022/12/11 07:41:37;;;;;;;39.33;15.00;;;1.20;99.90;;;;;;5112195;28;20060;-69
2022/12/11 07:44:03;;;;;;;40.83;15.50;;;1.40;99.90;;;;;;5110680;28;20074;-69
2022/12/11 07:46:31;;;;;;;44.10;16.52;;;1.60;99.90;;;;;;5111859;28;20031;-69
2022/12/11 07:48:58;;;;;;;38.08;16.13;;;1.40;99.90;;;;;;5110816;28;20044;-69
2022/12/11 07:51:27;;;;;;;42.75;15.27;;;1.40;99.90;;;;;;5112230;28;20062;-69
2022/12/11 07:53:58;;;;;;;41.40;17.67;;;1.30;99.90;;;;;;5110333;28;20051;-69
2022/12/11 07:56:25;;;;;;;44.55;16.38;;;1.50;99.90;;;;;;5093655;28;20050;-70
2022/12/11 07:58:50;;;;;;;41.65;17.02;;;1.70;99.90;;;;;;5093563;28;20035;-69
2022/12/11 08:01:22;;;;;;;44.85;17.58;;;1.60;99.90;;;;;;5093617;28;20461;-69
2022/12/11 08:03:49;;;;;;;39.13;15.02;;;1.20;99.90;;;;;;5111831;28;20031;-69
2022/12/11 08:06:15;;;;;;;45.42;15.80;;;1.50;99.90;;;;;;5110687;28;20486;-69
2022/12/11 08:08:41;;;;;;;44.15;16.77;;;1.20;99.90;;;;;;5110760;28;20036;-69
2022/12/11 08:11:12;;;;;;;43.05;16.23;;;1.60;99.90;;;;;;5107274;28;20031;-68
2022/12/11 08:13:38;;;;;;;50.92;17.85;;;1.30;99.90;;;;;;5089954;28;20035;-69
2022/12/11 08:16:10;;;;;;;46.53;17.55;;;1.60;99.90;;;;;;5102749;28;20149;-70
2022/12/11 08:18:36;;;;;;;45.10;15.88;;;1.30;99.90;;;;;;5098666;28;20036;-69
2022/12/11 08:21:06;;;;;;;45.60;16.50;;;1.40;99.90;;;;;;5093404;28;20039;-69
2022/12/11 08:23:32;;;;;;;42.90;17.67;;;1.60;99.90;;;;;;5103332;28;20149;-69
2022/12/11 08:25:58;;;;;;;37.22;17.13;;;1.40;99.90;;;;;;5110161;28;20055;-69
2022/12/11 08:28:23;;;;;;;35.28;16.35;;;1.50;99.90;;;;;;5106714;28;20036;-70
2022/12/11 08:30:49;;;;;;;39.72;15.63;;;1.40;99.90;;;;;;5109022;28;20043;-71
2022/12/11 08:33:14;;;;;;;37.97;16.08;;;1.50;99.90;;;;;;5113038;28;20043;-69
2022/12/11 08:35:40;;;;;;;42.75;16.63;;;1.50;99.90;;;;;;5114569;28;20104;-69
2022/12/11 08:38:05;;;;;;;37.45;15.15;;;1.50;99.90;;;;;;5104250;28;20038;-69
2022/12/11 08:40:31;;;;;;;45.10;17.70;;;1.60;99.90;;;;;;5096058;28;20409;-69
2022/12/11 08:42:56;;;;;;;41.55;15.32;;;1.20;99.90;;;;;;5106298;28;20527;-69
2022/12/11 08:45:22;;;;;;;38.58;15.38;;;1.20;99.90;;;;;;5099772;28;20503;-69
2022/12/11 08:47:47;;;;;;;38.88;16.17;;;1.60;99.90;;;;;;5106234;28;20043;-69
2022/12/11 08:50:13;;;;;;;35.95;16.27;;;1.50;99.90;;;;;;5114128;28;20042;-69
2022/12/11 08:52:38;;;;;;;40.13;16.83;;;1.40;99.90;;;;;;5112707;28;20043;-69
2022/12/11 08:55:04;;;;;;;39.22;16.10;;;1.30;99.90;;;;;;5113857;28;20054;-69
2022/12/11 08:57:30;;;;;;;38.80;17.73;;;1.10;99.90;;;;;;5112707;28;20173;-68
2022/12/11 08:59:55;;;;;;;42.05;16.95;;;1.30;99.90;;;;;;5110307;28;20119;-69
2022/12/11 09:02:21;;;;;;;43.92;17.38;;;1.50;99.90;;;;;;5108035;28;20176;-69
2022/12/11 09:04:47;;;;;;;44.67;17.67;;;1.50;99.90;;;;;;5099742;28;20054;-69
2022/12/11 09:07:12;;;;;;;41.83;17.20;;;1.50;99.90;;;;;;5103835;28;20043;-68
2022/12/11 09:09:38;;;;;;;42.13;16.48;;;1.30;99.90;;;;;;5103220;28;20077;-69
2022/12/11 09:12:03;;;;;;;46.53;17.75;;;1.20;99.90;;;;;;5101296;28;20055;-69
2022/12/11 09:14:29;;;;;;;48.55;19.65;;;1.40;99.90;;;;;;5097396;28;20085;-68
2022/12/11 09:16:55;;;;;;;44.80;17.88;;;1.30;99.90;;;;;;5094175;28;20476;-69
2022/12/11 09:19:20;;;;;;;39.20;15.90;;;1.50;99.90;;;;;;5098134;28;20047;-68
2022/12/11 09:21:46;;;;;;;47.38;17.35;;;1.30;99.90;;;;;;5098101;28;20051;-69
2022/12/11 09:24:12;;;;;;;47.58;18.00;;;1.40;99.90;;;;;;5110511;28;20059;-68
2022/12/11 09:26:38;;;;;;;49.55;19.80;;;1.30;99.90;;;;;;5112375;28;20027;-69
2022/12/11 09:29:04;;;;;;;46.28;18.23;;;1.30;99.90;;;;;;5112565;28;20043;-69
2022/12/11 09:31:33;;;;;;;48.95;18.25;;;1.30;99.90;;;;;;5112292;28;20443;-69
2022/12/11 09:34:04;;;;;;;45.45;18.23;;;1.20;99.90;;;;;;5105480;28;20056;-69
2022/12/11 09:36:30;;;;;;;40.53;15.90;;;1.20;99.90;;;;;;5099002;28;20081;-69
2022/12/11 09:39:00;;;;;;;46.42;18.02;;;1.60;99.90;;;;;;5111600;28;20047;-69
2022/12/11 09:42:04;;;;;;;45.45;17.92;;;1.30;99.90;;;;;;5112971;28;20114;-69
2022/12/11 09:44:41;;;;;;;53.67;19.02;;;1.50;99.90;;;;;;5111315;28;20093;-69
2022/12/11 09:47:34;;;;;;;41.58;17.83;;;1.30;99.90;;;;;;5113075;28;20036;-68
2022/12/11 09:50:18;;;;;;;45.55;16.70;;;1.50;99.90;;;;;;5111864;28;20044;-69
2022/12/11 09:53:05;;;;;;;43.05;16.77;;;1.50;99.90;;;;;;5112424;28;20513;-68
2022/12/11 09:55:59;;;;;;;46.83;18.90;;;1.20;99.90;;;;;;5111617;28;20047;-68
2022/12/11 09:58:53;;;;;;;43.25;17.15;;;1.20;99.90;;;;;;5107595;28;20512;-68
2022/12/11 10:01:28;;;;;;;44.90;19.55;;;1.60;99.90;;;;;;5107598;28;20083;-68
2022/12/11 10:04:25;;;;;;;45.80;19.00;;;1.30;99.90;;;;;;5110431;28;20118;-67
2022/12/11 10:07:03;;;;;;;45.45;18.67;;;1.60;99.90;;;;;;5091697;28;20071;-68
2022/12/11 10:09:43;;;;;;;46.60;17.10;;;1.40;99.90;;;;;;5106044;28;20038;-69
2022/12/11 10:12:21;;;;;;;48.88;19.88;;;1.30;99.90;;;;;;5093092;28;20349;-67
2022/12/11 10:14:58;;;;;;;49.95;19.52;;;1.30;99.90;;;;;;5093373;28;20035;-68
2022/12/11 10:17:29;;;;;;;53.50;19.52;;;1.50;99.90;;;;;;5093343;28;20036;-68
2022/12/11 10:20:17;;;;;;;54.97;19.02;;;1.50;99.90;;;;;;5093015;28;20437;-68
2022/12/11 10:22:43;;;;;;;47.83;18.90;;;1.70;99.90;;;;;;5092514;28;20032;-68
2022/12/11 10:25:36;;;;;;;50.70;19.45;;;1.40;99.90;;;;;;5091544;28;20489;-70
2022/12/11 10:28:12;;;;;;;51.85;22.42;;;1.30;99.90;;;;;;5090356;28;20040;-69
2022/12/11 10:30:46;;;;;;;49.90;20.50;;;1.40;99.90;;;;;;5091524;28;22154;-69
2022/12/11 10:33:23;;;;;;;49.65;22.98;;;1.60;99.90;;;;;;5110913;27;20036;-70
2022/12/11 10:35:55;;;;;;;51.17;19.60;;;1.60;99.90;;;;;;5114757;27;20054;-68
2022/12/11 10:38:33;;;;;;;48.33;18.73;;;1.70;99.90;;;;;;5094470;28;20040;-70
2022/12/11 10:41:04;;;;;;;47.63;21.52;;;1.70;99.90;;;;;;5105195;28;20044;-69
2022/12/11 10:43:38;;;;;;;51.85;20.40;;;1.40;99.90;;;;;;5103076;28;20557;-67
2022/12/11 10:46:05;;;;;;;52.67;20.52;;;1.80;99.90;;;;;;5112636;28;20031;-66
2022/12/11 10:48:31;;;;;;;51.72;20.70;;;1.60;99.90;;;;;;5110643;28;20036;-66
2022/12/11 10:51:01;;;;;;;47.25;19.45;;;1.70;99.90;;;;;;5095903;28;20412;-66
2022/12/11 10:53:28;;;;;;;45.40;18.30;;;1.50;99.90;;;;;;5091719;28;20040;-68
2022/12/11 10:55:56;;;;;;;52.88;22.20;;;1.50;99.90;;;;;;5106777;28;20039;-68
2022/12/11 10:58:25;;;;;;;49.03;19.10;;;1.50;99.90;;;;;;5112502;28;20047;-67
2022/12/11 11:01:09;;;;;;;45.83;19.92;;;1.90;99.90;;;;;;5111404;28;20048;-69
2022/12/11 11:03:52;;;;;;;50.63;21.23;;;1.90;99.90;;;;;;5100201;28;20053;-67
2022/12/11 11:06:20;;;;;;;46.08;20.15;;;1.50;99.90;;;;;;5109013;28;20054;-67
2022/12/11 11:08:47;;;;;;;53.35;21.15;;;1.90;99.90;;;;;;5091765;28;20474;-67
2022/12/11 11:11:37;;;;;;;45.70;20.48;;;1.80;99.90;;;;;;5092222;28;20464;-67
2022/12/11 11:14:13;;;;;;;44.20;20.13;;;1.60;99.90;;;;;;5110685;28;20071;-67
2022/12/11 11:16:41;;;;;;;50.42;20.75;;;1.60;99.90;;;;;;5111973;28;20099;-67
2022/12/11 11:19:25;;;;;;;50.10;20.48;;;1.50;99.90;;;;;;5111883;28;20184;-67
2022/12/11 11:22:00;;;;;;;57.08;23.35;;;1.60;99.90;;;;;;5112196;28;20108;-67
2022/12/11 11:24:35;;;;;;;56.20;19.75;;;1.70;99.90;;;;;;5110612;28;20107;-68
2022/12/11 11:27:02;;;;;;;46.08;19.60;;;1.60;99.90;;;;;;5111955;28;20043;-68
2022/12/11 11:29:34;;;;;;;45.88;20.83;;;1.90;99.90;;;;;;5110578;28;20057;-67
2022/12/11 11:32:14;;;;;;;49.22;20.17;;;1.60;99.90;;;;;;5110635;28;20040;-70
2022/12/11 11:34:40;;;;;;;46.75;20.48;;;1.90;99.90;;;;;;5110564;28;20071;-67
2022/12/11 11:37:31;;;;;;;49.20;21.35;;;2.00;99.90;;;;;;5111752;28;20427;-67
2022/12/11 11:40:07;;;;;;;45.83;19.23;;;1.60;99.90;;;;;;5110225;28;20052;-67
2022/12/11 11:42:59;;;;;;;42.88;19.10;;;1.60;99.90;;;;;;5095744;28;20035;-68
2022/12/11 11:45:42;;;;;;;43.38;18.85;;;1.70;99.90;;;;;;5110386;28;20040;-67
2022/12/11 11:48:17;;;;;;;50.67;20.38;;;1.70;99.90;;;;;;5110455;28;20047;-68
2022/12/11 11:50:45;;;;;;;41.30;19.38;;;1.70;99.90;;;;;;5111728;28;20165;-67
2022/12/11 11:53:39;;;;;;;43.65;18.92;;;1.80;99.90;;;;;;5111327;28;20040;-67
2022/12/11 11:56:08;;;;;;;;;;;2.10;99.90;;;;;;5109044;28;20040;-66
2022/12/11 11:59:01;;;;;;;43.67;18.83;;;2.10;99.90;;;;;;5110621;28;20056;-67
2022/12/11 12:01:28;;;;;;;41.15;19.02;;;2.00;99.90;;;;;;5112568;28;20070;-67
2022/12/11 12:03:55;;;;;;;50.05;21.60;;;2.00;99.90;;;;;;5114194;28;20055;-67
2022/12/11 12:06:29;;;;;;;39.13;18.05;;;2.00;99.90;;;;;;5106899;28;20067;-68
2022/12/11 12:09:34;;;;;;;48.85;19.75;;;2.10;99.90;;;;;;5101681;28;20082;-67
2022/12/11 12:12:23;;;;;;;44.97;19.33;;;1.80;99.90;;;;;;5073760;28;20241;-67
2022/12/11 12:15:20;;;;;;;43.63;19.20;;;1.90;99.90;;;;;;5111018;28;20389;-68
2022/12/11 12:17:46;;;;;;;52.58;20.90;;;1.90;99.90;;;;;;5104026;28;20120;-67
2022/12/11 12:20:23;;;;;;;43.28;19.30;;;1.80;99.90;;;;;;5106481;28;20119;-69
2022/12/11 12:23:24;;;;;;;40.35;17.98;;;1.90;99.90;;;;;;5099141;28;20098;-68
2022/12/11 12:26:04;;;;;;;35.80;17.58;;;2.00;99.90;;;;;;5093950;28;20634;-68
2022/12/11 12:28:52;;;;;;;42.83;18.77;;;2.20;99.90;;;;;;5093768;28;20641;-68
2022/12/11 12:31:36;;;;;;;50.75;18.35;;;2.00;99.90;;;;;;5095308;28;20074;-67
2022/12/11 12:34:39;;;;;;;43.13;18.80;;;2.20;99.90;;;;;;5093799;28;20414;-69
2022/12/11 12:37:13;;;;;;;42.35;19.63;;;2.20;99.90;;;;;;5093711;28;20485;-67
2022/12/11 12:39:59;;;;;;;47.20;19.17;;;2.00;99.90;;;;;;5093487;28;20578;-67
2022/12/11 12:42:28;;;;;;;44.97;18.10;;;1.90;99.90;;;;;;5093208;28;20054;-68
2022/12/11 12:45:11;;;;;;;40.53;18.15;;;2.10;99.90;;;;;;5094747;28;20089;-68
2022/12/11 12:47:39;;;;;;;51.58;21.70;;;1.90;99.90;;;;;;5094793;28;20040;-68
2022/12/11 12:50:11;;;;;;;48.60;20.73;;;2.20;99.90;;;;;;5093621;28;20480;-68
2022/12/11 12:52:39;;;;;;;42.20;19.65;;;1.90;99.90;;;;;;5094306;28;20048;-70
2022/12/11 12:55:27;;;;;;;49.88;20.35;;;2.20;99.90;;;;;;5094680;28;20089;-68
2022/12/11 12:58:00;;;;;;;44.78;20.27;;;2.10;99.90;;;;;;5094691;28;20036;-67
2022/12/11 13:00:40;;;;;;;44.13;19.80;;;2.00;99.90;;;;;;5094576;28;20040;-68
2022/12/11 13:03:21;;;;;;;49.35;20.42;;;1.90;99.90;;;;;;5094104;28;20266;-68